Time;durP1;ratioP1;P1;durP2;ratioP2;P2;SDS_P1;SDS_P2;PMS_P1;PMS_P2;Temp;Humidity;BMP_temperature;BMP_pressure;BME280_temperature;BME280_humidity;BME280_pressure;Samples;Min_cycle;Max_cycle;Signal;HPM_P1;HPM_P2
2021/05/09 00:00:07;;;;;;;1999.90;999.90;;;;;;;5.31;76.62;96319.72;5071042;28;20284;-61
2021/05/09 00:02:34;;;;;;;1999.90;999.90;;;;;;;5.28;76.39;96309.88;5071142;28;20625;-62
2021/05/09 00:05:01;;;;;;;1999.90;999.90;;;;;;;5.26;76.78;96317.06;5071114;28;20196;-64
2021/05/09 00:07:28;;;;;;;1999.90;999.90;;;;;;;5.22;77.53;96314.19;5070292;28;20232;-62
2021/05/09 00:09:54;;;;;;;1999.90;999.90;;;;;;;5.23;77.42;96314.97;5070680;28;20241;-63
2021/05/09 00:12:21;;;;;;;1999.90;999.90;;;;;;;5.30;76.95;96318.16;5071111;28;20208;-63
2021/05/09 00:14:48;;;;;;;1999.90;999.90;;;;;;;5.26;77.58;96317.06;5070819;28;20198;-62
2021/05/09 00:17:16;;;;;;;1999.90;999.90;;;;;;;5.30;77.78;96318.16;5070946;28;20259;-62
2021/05/09 00:19:42;;;;;;;1999.90;999.90;;;;;;;5.39;76.49;96312.31;5070997;28;20204;-62
2021/05/09 00:22:09;;;;;;;1999.90;999.90;;;;;;;5.21;76.90;96307.47;5070627;28;20257;-63
2021/05/09 00:24:36;;;;;;;1999.90;999.90;;;;;;;5.18;77.54;96301.00;5070828;28;20203;-61
2021/05/09 00:27:03;;;;;;;1999.90;999.90;;;;;;;5.12;78.38;96308.91;5070792;28;20192;-62
2021/05/09 00:29:30;;;;;;;1999.90;999.90;;;;;;;5.11;78.14;96307.34;5070735;28;20725;-60
2021/05/09 00:31:56;;;;;;;1999.90;999.90;;;;;;;5.03;77.91;96305.94;5070611;28;20239;-62
2021/05/09 00:34:24;;;;;;;1999.90;999.90;;;;;;;5.09;77.80;96305.00;5070399;28;20583;-61
2021/05/09 00:36:52;;;;;;;1999.90;999.90;;;;;;;5.04;78.57;96307.50;5070621;28;20206;-61
2021/05/09 00:39:19;;;;;;;1999.90;999.90;;;;;;;4.93;78.27;96313.53;5070924;28;20247;-61
2021/05/09 00:41:45;;;;;;;1999.90;999.90;;;;;;;5.00;77.47;96314.16;5070551;28;20275;-63
2021/05/09 00:44:13;;;;;;;1999.90;999.90;;;;;;;4.81;79.15;96318.03;5070630;28;20200;-62
2021/05/09 00:46:40;;;;;;;1999.90;999.90;;;;;;;4.87;78.09;96317.06;5070348;28;20646;-62
2021/05/09 00:49:07;;;;;;;1999.90;999.90;;;;;;;4.68;78.44;96306.22;5070359;28;20235;-63
2021/05/09 00:51:35;;;;;;;1999.90;999.90;;;;;;;4.61;79.33;96312.56;5070229;28;20192;-63
2021/05/09 00:54:03;;;;;;;1999.90;999.90;;;;;;;4.56;79.24;96312.50;5070540;28;20200;-63
2021/05/09 00:56:30;;;;;;;1999.90;999.90;;;;;;;4.63;79.26;96323.44;5070609;28;20201;-63
2021/05/09 00:58:57;;;;;;;1999.90;999.90;;;;;;;4.58;80.09;96318.19;5070143;28;20663;-64
2021/05/09 01:01:25;;;;;;;1999.90;999.90;;;;;;;4.61;80.34;96315.16;5070205;28;20196;-61
2021/05/09 01:03:55;;;;;;;1999.90;999.90;;;;;;;4.63;80.63;96326.00;5070034;28;20240;-62
2021/05/09 01:06:22;;;;;;;1999.90;999.90;;;;;;;4.65;80.92;96326.53;5069943;28;20703;-63
2021/05/09 01:08:50;;;;;;;1999.90;999.90;;;;;;;4.67;80.19;96327.09;5070385;28;20236;-62
2021/05/09 01:11:18;;;;;;;1999.90;999.90;;;;;;;4.81;78.66;96330.09;5070093;28;20647;-62
2021/05/09 01:13:45;;;;;;;1999.90;999.90;;;;;;;4.73;79.59;96328.72;5070148;28;20321;-62
2021/05/09 01:16:11;;;;;;;1999.90;999.90;;;;;;;4.87;78.18;96334.31;5069948;28;20216;-63
2021/05/09 01:18:38;;;;;;;1999.90;999.90;;;;;;;4.76;78.06;96328.25;5069594;28;20203;-62
2021/05/09 01:21:06;;;;;;;1999.90;999.90;;;;;;;4.85;78.01;96331.97;5070183;28;20227;-63
2021/05/09 01:23:33;;;;;;;1999.90;999.90;;;;;;;4.79;79.04;96320.03;5069970;28;20715;-62
2021/05/09 01:26:00;;;;;;;1999.90;999.90;;;;;;;4.71;79.26;96328.94;5069912;28;20725;-60
2021/05/09 01:28:28;;;;;;;1999.90;999.90;;;;;;;4.68;79.05;96331.22;5069663;28;20229;-62
2021/05/09 01:30:55;;;;;;;1999.90;999.90;;;;;;;4.65;79.62;96322.16;5069981;28;20204;-61
2021/05/09 01:33:22;;;;;;;1999.90;999.90;;;;;;;4.63;79.36;96323.44;5070135;28;20203;-62
2021/05/09 01:35:49;;;;;;;1999.90;999.90;;;;;;;4.55;79.79;96324.59;5069756;28;20684;-62
2021/05/09 01:38:17;;;;;;;1999.90;999.90;;;;;;;4.55;78.36;96337.44;5069861;28;20207;-63
2021/05/09 01:40:44;;;;;;;1999.90;999.90;;;;;;;4.46;79.01;96338.06;5069713;28;20785;-64
2021/05/09 01:43:12;;;;;;;1999.90;999.90;;;;;;;4.37;78.92;96347.19;5069850;28;20201;-61
2021/05/09 01:45:39;;;;;;;1999.90;999.90;;;;;;;4.29;79.76;96338.84;5069727;28;20196;-62
2021/05/09 01:48:06;;;;;;;1999.90;999.90;;;;;;;4.32;80.99;96340.97;5069935;28;20224;-62
2021/05/09 01:50:33;;;;;;;1999.90;999.90;;;;;;;4.31;80.54;96338.59;5069944;28;20580;-62
2021/05/09 01:53:01;;;;;;;1999.90;999.90;;;;;;;4.33;80.70;96347.63;5069790;28;20200;-62
2021/05/09 01:55:29;;;;;;;1999.90;999.90;;;;;;;4.30;81.54;96348.13;5069863;28;20291;-62
2021/05/09 01:57:56;;;;;;;1999.90;999.90;;;;;;;4.39;80.97;96350.28;5069696;28;20521;-62
2021/05/09 02:00:24;;;;;;;1999.90;999.90;;;;;;;4.44;81.82;96345.22;5069602;28;20254;-63
2021/05/09 02:02:51;;;;;;;1999.90;999.90;;;;;;;4.47;81.31;96350.72;5074899;28;20611;-61
2021/05/09 02:05:18;;;;;;;1999.90;999.90;;;;;;;4.45;80.57;96344.22;5073750;28;20201;-62
2021/05/09 02:07:46;;;;;;;1999.90;999.90;;;;;;;4.38;80.85;96356.47;5069244;28;20221;-62
2021/05/09 02:10:13;;;;;;;1999.90;999.90;;;;;;;4.40;80.67;96349.28;5069415;28;20255;-65
2021/05/09 02:12:41;;;;;;;1999.90;999.90;;;;;;;4.40;80.59;96357.00;5069396;28;20695;-63
2021/05/09 02:15:11;;;;;;;1999.90;999.90;;;;;;;4.41;80.02;96351.63;5069494;28;20196;-62
2021/05/09 02:17:38;;;;;;;1999.90;999.90;;;;;;;4.50;80.04;96346.88;5069621;28;20692;-62
2021/05/09 02:20:08;;;;;;;1999.90;999.90;;;;;;;4.43;79.52;96346.28;5069862;28;20196;-62
2021/05/09 02:22:35;;;;;;;1999.90;999.90;;;;;;;4.48;79.32;96347.13;5069768;28;20232;-62
2021/05/09 02:25:02;;;;;;;1999.90;999.90;;;;;;;4.38;80.50;96351.34;5069637;28;20228;-62
2021/05/09 02:27:29;;;;;;;1999.90;999.90;;;;;;;4.34;80.92;96346.63;5069144;28;20204;-61
2021/05/09 02:29:58;;;;;;;1999.90;999.90;;;;;;;4.25;80.61;96354.97;5069725;28;20232;-62
2021/05/09 02:32:25;;;;;;;1999.90;999.90;;;;;;;4.24;80.26;96354.19;5072728;28;20197;-62
2021/05/09 02:34:51;;;;;;;1999.90;999.90;;;;;;;4.10;79.97;96357.28;5072816;28;20279;-63
2021/05/09 02:37:18;;;;;;;1999.90;999.90;;;;;;;3.89;79.88;96363.84;5073481;28;20287;-62
2021/05/09 02:39:46;;;;;;;1999.90;999.90;;;;;;;3.82;80.30;96364.00;5072734;28;20192;-62
2021/05/09 02:42:14;;;;;;;1999.90;999.90;;;;;;;3.84;80.59;96361.94;5072635;28;20195;-61
2021/05/09 02:44:41;;;;;;;1999.90;999.90;;;;;;;3.76;80.61;96369.25;5072799;28;20259;-61
2021/05/09 02:47:08;;;;;;;1999.90;999.90;;;;;;;3.47;80.51;96374.34;5072596;28;20634;-60
2021/05/09 02:49:35;;;;;;;1999.90;999.90;;;;;;;3.37;81.44;96363.09;5072448;28;20224;-63
2021/05/09 02:52:03;;;;;;;1999.90;999.90;;;;;;;3.21;81.61;96363.78;5072422;28;20270;-63
2021/05/09 02:54:29;;;;;;;1999.90;999.90;;;;;;;3.26;82.18;96374.94;5072326;28;20236;-62
2021/05/09 02:56:57;;;;;;;1999.90;999.90;;;;;;;3.24;82.05;96376.94;5072685;28;20231;-63
2021/05/09 02:59:24;;;;;;;1999.90;999.90;;;;;;;3.18;82.48;96379.66;5072459;28;20196;-63
2021/05/09 03:01:51;;;;;;;1999.90;999.90;;;;;;;3.28;83.00;96382.44;5072297;28;20220;-62
2021/05/09 03:04:19;;;;;;;1999.90;999.90;;;;;;;3.34;83.63;96386.66;5072809;28;20253;-63
2021/05/09 03:06:45;;;;;;;1999.90;999.90;;;;;;;3.33;82.50;96390.25;5072162;28;20228;-64
2021/05/09 03:09:12;;;;;;;1999.90;999.90;;;;;;;3.24;83.55;96387.22;5072022;28;20228;-62
2021/05/09 03:11:39;;;;;;;1999.90;999.90;;;;;;;3.23;83.12;96395.94;5072352;28;20648;-64
2021/05/09 03:14:06;;;;;;;1999.90;999.90;;;;;;;3.16;83.76;96404.75;5072363;28;20303;-63
2021/05/09 03:16:32;;;;;;;1999.90;999.90;;;;;;;3.02;83.78;96402.41;5071987;28;20741;-63
2021/05/09 03:19:00;;;;;;;1999.90;999.90;;;;;;;2.98;84.20;96414.16;5072195;28;20203;-62
2021/05/09 03:21:27;;;;;;;1999.90;999.90;;;;;;;3.03;83.35;96395.50;5071917;28;20217;-63
2021/05/09 03:23:54;;;;;;;1999.90;999.90;;;;;;;3.06;83.25;96395.03;5071955;28;20690;-62
2021/05/09 03:26:21;;;;;;;1999.90;999.90;;;;;;;2.98;83.96;96400.53;5071860;28;20199;-62
2021/05/09 03:28:48;;;;;;;1999.90;999.90;;;;;;;2.91;84.19;96407.53;5071942;28;20285;-63
2021/05/09 03:31:14;;;;;;;1999.90;999.90;;;;;;;2.93;84.53;96410.69;5071902;28;20625;-63
2021/05/09 03:33:41;;;;;;;1999.90;999.90;;;;;;;2.91;84.33;96410.88;5071900;28;20203;-63
2021/05/09 03:36:08;;;;;;;1999.90;999.90;;;;;;;2.97;84.85;96406.66;5071736;28;20193;-62
2021/05/09 03:38:37;;;;;;;1999.90;999.90;;;;;;;2.79;85.54;96410.06;5072003;28;20212;-62
2021/05/09 03:41:04;;;;;;;1999.90;999.90;;;;;;;2.92;85.14;96409.88;5071686;28;20312;-63
2021/05/09 03:43:31;;;;;;;1999.90;999.90;;;;;;;2.99;86.11;96413.13;5071699;28;20287;-63
2021/05/09 03:45:58;;;;;;;1999.90;999.90;;;;;;;3.04;85.94;96423.50;5071543;28;20201;-62
2021/05/09 03:48:24;;;;;;;1999.90;999.90;;;;;;;2.97;85.97;96422.06;5071420;28;20259;-63
2021/05/09 03:50:51;;;;;;;1999.90;999.90;;;;;;;3.14;85.72;96422.19;5071225;28;20587;-62
2021/05/09 03:53:18;;;;;;;1999.90;999.90;;;;;;;3.19;85.95;96430.75;5071316;28;20235;-62
2021/05/09 03:55:46;;;;;;;1999.90;999.90;;;;;;;3.15;85.79;96439.13;5071643;28;20282;-63
2021/05/09 03:58:13;;;;;;;1999.90;999.90;;;;;;;3.17;86.62;96437.94;5071127;28;20561;-62
2021/05/09 04:00:39;;;;;;;1999.90;999.90;;;;;;;3.20;86.61;96434.91;5071260;28;20218;-62
2021/05/09 04:03:19;;;;;;;1999.90;999.90;;;;;;;3.34;86.34;96441.38;5071108;28;20207;-66
2021/05/09 04:05:47;;;;;;;1999.90;999.90;;;;;;;3.39;86.71;96444.06;5071201;28;20196;-62
2021/05/09 04:08:14;;;;;;;1999.90;999.90;;;;;;;3.53;86.34;96446.41;5070898;28;20550;-62
2021/05/09 04:10:42;;;;;;;1999.90;999.90;;;;;;;3.79;86.19;96441.53;5070912;28;20678;-62
2021/05/09 04:13:10;;;;;;;1999.90;999.90;;;;;;;4.10;86.17;96440.34;5070995;28;20197;-62
2021/05/09 04:15:37;;;;;;;1999.90;999.90;;;;;;;4.39;85.39;96445.50;5070545;28;20192;-63
2021/05/09 04:18:04;;;;;;;1999.90;999.90;;;;;;;4.55;84.23;96445.56;5071332;28;20228;-62
2021/05/09 04:20:32;;;;;;;1999.90;999.90;;;;;;;4.75;83.69;96438.16;5070679;28;20228;-62
2021/05/09 04:23:09;;;;;;;1999.90;999.90;;;;;;;5.07;82.73;96438.44;5070758;28;20808;-62
2021/05/09 04:25:36;;;;;;;1999.90;999.90;;;;;;;5.71;79.84;96436.22;5070723;28;20242;-63
2021/05/09 04:28:03;;;;;;;1999.90;999.90;;;;;;;6.34;76.69;96443.41;5074134;28;20693;-61
2021/05/09 04:30:31;;;;;;;1999.90;999.90;;;;;;;7.01;73.29;96452.56;5075744;28;20324;-61
2021/05/09 04:33:00;;;;;;;1999.90;999.90;;;;;;;7.52;71.38;96444.09;5075480;28;20287;-61
2021/05/09 04:35:29;;;;;;;1999.90;999.90;;;;;;;7.87;70.08;96450.53;5070957;28;20200;-62
2021/05/09 04:37:56;;;;;;;1999.90;999.90;;;;;;;8.10;68.78;96450.09;5070987;28;20199;-64
2021/05/09 04:40:23;;;;;;;1999.90;999.90;;;;;;;8.46;68.13;96464.75;5070569;28;20199;-61
2021/05/09 04:42:50;;;;;;;1999.90;999.90;;;;;;;8.61;66.53;96464.00;5071138;28;20223;-61
2021/05/09 04:45:18;;;;;;;1999.90;999.90;;;;;;;8.73;66.75;96474.88;5071532;28;20192;-59
2021/05/09 04:47:46;;;;;;;1999.90;999.90;;;;;;;8.75;68.19;96477.22;5072522;28;20196;-59
2021/05/09 04:50:14;;;;;;;1999.90;999.90;;;;;;;9.06;68.67;96473.66;5070766;28;20228;-62
2021/05/09 04:52:41;;;;;;;1999.90;999.90;;;;;;;9.20;63.93;96471.31;5071586;28;20279;-61
2021/05/09 04:55:08;;;;;;;1999.90;999.90;;;;;;;9.28;66.84;96481.94;5073047;28;20278;-62
2021/05/09 04:57:36;;;;;;;1999.90;999.90;;;;;;;9.30;66.94;96484.28;5072126;28;20202;-62
2021/05/09 05:00:06;;;;;;;1999.90;999.90;;;;;;;9.11;65.73;96481.44;5070376;28;20196;-61
2021/05/09 05:02:33;;;;;;;1999.90;999.90;;;;;;;9.35;62.29;96492.84;5070685;28;20199;-62
2021/05/09 05:05:01;;;;;;;1999.90;999.90;;;;;;;9.39;61.65;96493.09;5072103;28;20525;-59
2021/05/09 05:07:27;;;;;;;1999.90;999.90;;;;;;;9.54;60.94;96500.06;5076491;28;20377;-61
2021/05/09 05:09:54;;;;;;;1999.90;999.90;;;;;;;9.60;59.82;96499.03;5077719;28;20265;-60
2021/05/09 05:12:21;;;;;;;1999.90;999.90;;;;;;;9.68;59.93;96501.09;5077799;28;20199;-64
2021/05/09 05:14:50;;;;;;;1999.90;999.90;;;;;;;9.77;58.89;96499.50;5078035;28;20711;-61
2021/05/09 05:17:17;;;;;;;1999.90;999.90;;;;;;;9.70;60.09;96491.22;5073198;28;20276;-62
2021/05/09 05:19:44;;;;;;;1999.90;999.90;;;;;;;9.81;61.07;96498.72;5068732;28;20196;-63
2021/05/09 05:22:12;;;;;;;1999.90;999.90;;;;;;;9.92;61.84;96497.66;5071130;28;20230;-63
2021/05/09 05:24:39;;;;;;;1999.90;999.90;;;;;;;10.11;59.63;96500.47;5076461;28;20250;-61
2021/05/09 05:27:06;;;;;;;1999.90;999.90;;;;;;;10.10;63.24;96501.53;5074785;28;20330;-63
2021/05/09 05:29:33;;;;;;;1999.90;999.90;;;;;;;10.14;62.25;96499.16;5075504;28;20228;-63
2021/05/09 05:32:00;;;;;;;1999.90;999.90;;;;;;;10.27;62.03;96509.78;5077909;28;20226;-60
2021/05/09 05:34:26;;;;;;;1999.90;999.90;;;;;;;10.43;62.91;96501.94;5077557;28;20211;-60
2021/05/09 05:36:54;;;;;;;1999.90;999.90;;;;;;;10.35;61.72;96506.66;5072566;28;20192;-63
2021/05/09 05:39:22;;;;;;;1999.90;999.90;;;;;;;10.43;60.25;96502.72;5069836;28;20201;-63
2021/05/09 05:41:48;;;;;;;1999.90;999.90;;;;;;;10.56;60.79;96501.38;5070073;28;20246;-62
2021/05/09 05:44:16;;;;;;;1999.90;999.90;;;;;;;10.43;60.60;96505.31;5070065;28;20220;-63
2021/05/09 05:46:43;;;;;;;1999.90;999.90;;;;;;;10.42;61.74;96513.38;5071928;28;20223;-63
2021/05/09 05:49:09;;;;;;;1999.90;999.90;;;;;;;10.34;64.85;96512.88;5076287;28;20591;-62
2021/05/09 05:51:36;;;;;;;1999.90;999.90;;;;;;;10.63;61.69;96507.81;5079713;28;20725;-62
2021/05/09 05:54:03;;;;;;;1999.90;999.90;;;;;;;10.79;62.61;96508.50;5077856;28;20338;-62
2021/05/09 05:56:31;;;;;;;1999.90;999.90;;;;;;;11.06;59.76;96511.44;5077162;28;20279;-61
2021/05/09 05:58:58;;;;;;;1999.90;999.90;;;;;;;11.16;59.70;96506.16;5075667;28;20196;-61
2021/05/09 06:01:25;;;;;;;1999.90;999.90;;;;;;;11.23;59.74;96505.88;5073895;28;20676;-63
2021/05/09 06:03:52;;;;;;;1999.90;999.90;;;;;;;11.44;61.64;96509.88;5078182;28;20197;-61
2021/05/09 06:06:19;;;;;;;1999.90;999.90;;;;;;;11.59;61.42;96501.16;5078326;28;20232;-61
2021/05/09 06:08:46;;;;;;;1999.90;999.90;;;;;;;11.68;60.92;96491.69;5079331;28;20224;-61
2021/05/09 06:11:13;;;;;;;1999.90;999.90;;;;;;;11.99;59.87;96503.41;5078423;28;20573;-63
2021/05/09 06:13:41;;;;;;;1999.90;999.90;;;;;;;12.14;57.77;96509.50;5078337;28;20252;-62
2021/05/09 06:16:09;;;;;;;1999.90;999.90;;;;;;;12.37;57.83;96498.25;5080402;28;20300;-64
2021/05/09 06:18:36;;;;;;;1999.90;999.90;;;;;;;12.47;59.19;96503.34;5081816;28;20193;-61
2021/05/09 06:21:03;;;;;;;1999.90;999.90;;;;;;;12.65;57.63;96499.97;5081409;28;20564;-62
2021/05/09 06:23:30;;;;;;;1999.90;999.90;;;;;;;12.81;53.50;96503.16;5079456;28;21218;-64
2021/05/09 06:25:57;;;;;;;1999.90;999.90;;;;;;;12.82;56.47;96500.28;5077162;28;20436;-64
2021/05/09 06:28:25;;;;;;;1999.90;999.90;;;;;;;13.10;58.51;96495.22;5081393;28;20212;-60
2021/05/09 06:30:52;;;;;;;1999.90;999.90;;;;;;;13.42;55.84;96503.06;5082799;28;20192;-59
2021/05/09 06:33:19;;;;;;;1999.90;999.90;;;;;;;13.69;53.82;96505.75;5082151;28;20275;-60
2021/05/09 06:35:46;;;;;;;1999.90;999.90;;;;;;;13.91;54.02;96506.94;5083524;28;20196;-61
2021/05/09 06:38:12;;;;;;;1999.90;999.90;;;;;;;14.12;50.92;96505.50;5082651;28;20192;-62
2021/05/09 06:40:40;;;;;;;1999.90;999.90;;;;;;;14.02;51.75;96506.47;5081938;28;20648;-59
2021/05/09 06:43:07;;;;;;;1999.90;999.90;;;;;;;14.09;51.73;96512.09;5083484;28;20633;-62
2021/05/09 06:45:35;;;;;;;1999.90;999.90;;;;;;;14.26;50.41;96508.09;5082307;28;20644;-61
2021/05/09 06:48:06;;;;;;;1999.90;999.90;;;;;;;14.20;52.12;96507.44;5080817;28;20227;-62
2021/05/09 06:50:34;;;;;;;1999.90;999.90;;;;;;;14.53;49.86;96515.97;5080717;28;20232;-62
2021/05/09 06:53:03;;;;;;;1999.90;999.90;;;;;;;14.34;50.43;96507.44;5082755;28;20196;-64
2021/05/09 06:55:31;;;;;;;1999.90;999.90;;;;;;;14.51;50.44;96503.19;5081149;28;20196;-62
2021/05/09 06:57:57;;;;;;;1999.90;999.90;;;;;;;14.75;48.48;96508.16;5081217;28;20195;-62
2021/05/09 07:00:25;;;;;;;1999.90;999.90;;;;;;;14.86;49.36;96508.72;5082760;28;20689;-63
2021/05/09 07:02:51;;;;;;;1999.90;999.90;;;;;;;14.50;49.28;96511.31;5082774;28;20181;-62
2021/05/09 07:05:19;;;;;;;1999.90;999.90;;;;;;;14.85;47.54;96510.56;5081886;28;20653;-63
2021/05/09 07:07:48;;;;;;;1999.90;999.90;;;;;;;14.96;45.98;96511.13;5082124;28;20228;-61
2021/05/09 07:10:15;;;;;;;1999.90;999.90;;;;;;;14.86;46.02;96511.34;5080033;28;20289;-62
2021/05/09 07:12:42;;;;;;;1999.90;999.90;;;;;;;15.17;45.71;96509.59;5083048;28;20275;-63
2021/05/09 07:15:10;;;;;;;1999.90;999.90;;;;;;;15.34;42.46;96509.72;5082043;28;20564;-63
2021/05/09 07:17:37;;;;;;;1999.90;999.90;;;;;;;15.35;39.42;96500.00;5081679;28;20209;-61
2021/05/09 07:20:04;;;;;;;1999.90;999.90;;;;;;;15.35;37.95;96503.41;5083110;28;20263;-63
2021/05/09 07:22:35;;;;;;;1999.90;999.90;;;;;;;15.64;38.61;96507.47;5080554;28;20193;-63
2021/05/09 07:25:02;;;;;;;1999.90;999.90;;;;;;;15.76;37.03;96508.47;5077216;28;20287;-65
2021/05/09 07:27:29;;;;;;;1999.90;999.90;;;;;;;15.85;36.17;96505.88;5083033;28;20262;-63
2021/05/09 07:29:56;;;;;;;1999.90;999.90;;;;;;;15.65;38.03;96509.00;5082682;28;20226;-63
2021/05/09 07:32:23;;;;;;;1999.90;999.90;;;;;;;15.78;41.02;96508.94;5080398;28;20211;-62
2021/05/09 07:34:49;;;;;;;1999.90;999.90;;;;;;;15.96;40.31;96512.41;5084728;28;20196;-62
2021/05/09 07:37:17;;;;;;;1999.90;999.90;;;;;;;15.68;37.77;96511.81;5083580;28;20279;-63
2021/05/09 07:39:45;;;;;;;1999.90;999.90;;;;;;;15.76;37.57;96510.31;5083957;28;20220;-64
2021/05/09 07:42:12;;;;;;;1999.90;999.90;;;;;;;15.81;39.27;96515.44;5084397;28;20193;-63
2021/05/09 07:44:39;;;;;;;1999.90;999.90;;;;;;;16.25;37.43;96520.53;5081230;28;20203;-60
2021/05/09 07:47:06;;;;;;;1999.90;999.90;;;;;;;16.36;38.73;96507.94;5084493;28;20257;-64
2021/05/09 07:49:32;;;;;;;1999.90;999.90;;;;;;;16.56;40.16;96507.34;5083289;28;20235;-62
2021/05/09 07:51:59;;;;;;;1999.90;999.90;;;;;;;16.46;39.39;96499.00;5077310;28;20192;-64
2021/05/09 07:54:26;;;;;;;1999.90;999.90;;;;;;;16.54;34.70;96504.25;5078682;28;20234;-64
2021/05/09 07:56:55;;;;;;;1999.90;999.90;;;;;;;16.47;36.78;96500.53;5083158;28;20196;-64
2021/05/09 07:59:23;;;;;;;1999.90;999.90;;;;;;;16.49;34.87;96496.53;5082887;28;20648;-65
2021/05/09 08:01:51;;;;;;;1999.90;999.90;;;;;;;16.47;34.71;96495.28;5075953;28;20203;-64
2021/05/09 08:04:19;;;;;;;1999.90;999.90;;;;;;;16.69;36.50;96489.94;5071401;28;20706;-64
2021/05/09 08:06:46;;;;;;;1999.90;999.90;;;;;;;16.54;35.65;96487.72;5070624;28;20680;-65
2021/05/09 08:09:13;;;;;;;1999.90;999.90;;;;;;;16.91;35.57;96497.69;5071269;28;20739;-64
2021/05/09 08:11:39;;;;;;;1999.90;999.90;;;;;;;17.26;35.33;96492.44;5074449;28;20558;-63
2021/05/09 08:14:07;;;;;;;1999.90;999.90;;;;;;;17.09;34.57;96493.97;5080998;28;20620;-62
2021/05/09 08:16:34;;;;;;;1999.90;999.90;;;;;;;17.13;32.65;96483.66;5082900;28;20276;-62
2021/05/09 08:19:01;;;;;;;1999.90;999.90;;;;;;;17.43;33.65;96481.91;5083305;28;20193;-60
2021/05/09 08:21:28;;;;;;;1999.90;999.90;;;;;;;17.56;31.52;96488.84;5084367;28;20264;-64
2021/05/09 08:23:55;;;;;;;1999.90;999.90;;;;;;;17.53;31.35;96486.84;5083672;28;20701;-64
2021/05/09 08:26:22;;;;;;;1999.90;999.90;;;;;;;17.41;31.93;96490.09;5083264;28;20268;-62
2021/05/09 08:28:50;;;;;;;1999.90;999.90;;;;;;;17.74;30.75;96487.72;5081452;28;20223;-64
2021/05/09 08:31:18;;;;;;;1999.90;999.90;;;;;;;17.74;29.13;96492.19;5083692;28;20193;-63
2021/05/09 08:33:48;;;;;;;1999.90;999.90;;;;;;;17.71;34.09;96488.34;5082652;28;20279;-62
2021/05/09 08:36:15;;;;;;;1999.90;999.90;;;;;;;17.91;31.83;96490.31;5081097;28;20200;-64
2021/05/09 08:38:42;;;;;;;1999.90;999.90;;;;;;;18.11;31.48;96490.69;5081435;28;20200;-61
2021/05/09 08:41:10;;;;;;;1999.90;999.90;;;;;;;18.10;31.72;96497.03;5079940;28;20211;-63
2021/05/09 08:43:37;;;;;;;1999.90;999.90;;;;;;;18.24;33.21;96484.41;5080016;28;20274;-59
2021/05/09 08:46:04;;;;;;;1999.90;999.90;;;;;;;18.59;32.46;96480.53;5080200;28;20220;-61
2021/05/09 08:48:34;;;;;;;1999.90;999.90;;;;;;;18.72;32.32;96479.53;5077824;28;20261;-63
2021/05/09 08:51:03;;;;;;;1999.90;999.90;;;;;;;18.60;32.64;96479.44;5081993;28;20185;-62
2021/05/09 08:53:30;;;;;;;1999.90;999.90;;;;;;;18.54;31.48;96483.34;5081352;28;20203;-63
2021/05/09 08:55:58;;;;;;;1999.90;999.90;;;;;;;18.77;33.35;96479.34;5080845;28;20204;-61
2021/05/09 08:58:25;;;;;;;1999.90;999.90;;;;;;;18.81;31.83;96477.59;5080422;28;20192;-64
2021/05/09 09:00:52;;;;;;;1999.90;999.90;;;;;;;18.98;32.51;96479.31;5076061;28;20192;-63
2021/05/09 09:03:19;;;;;;;1999.90;999.90;;;;;;;19.01;30.26;96473.41;5080844;28;20280;-64
2021/05/09 09:05:47;;;;;;;1999.90;999.90;;;;;;;18.78;33.40;96472.97;5080716;28;20193;-63
2021/05/09 09:08:15;;;;;;;1999.90;999.90;;;;;;;19.14;35.04;96461.06;5080364;28;20225;-61
2021/05/09 09:10:46;;;;;;;1999.90;999.90;;;;;;;19.14;30.17;96471.59;5079441;28;20232;-61
2021/05/09 09:13:26;;;;;;;1999.90;999.90;;;;;;;19.16;31.86;96474.69;5081687;28;20314;-64
2021/05/09 09:15:56;;;;;;;1999.90;999.90;;;;;;;19.28;32.64;96466.81;5079232;28;20252;-63
2021/05/09 09:18:35;;;;;;;1999.90;999.90;;;;;;;19.51;32.17;96459.34;5078904;28;20196;-63
2021/05/09 09:21:22;;;;;;;1999.90;999.90;;;;;;;19.70;31.35;96455.09;5080317;28;20189;-60
2021/05/09 09:23:51;;;;;;;1999.90;999.90;;;;;;;19.64;29.95;96453.75;5081782;28;20195;-63
2021/05/09 09:26:41;;;;;;;1999.90;999.90;;;;;;;19.68;28.14;96462.56;5080669;28;20802;-60
2021/05/09 09:29:28;;;;;;;1999.90;999.90;;;;;;;19.87;28.11;96453.34;5079370;28;20236;-62
2021/05/09 09:31:57;;;;;;;1999.90;999.90;;;;;;;19.98;27.18;96462.34;5081375;28;20647;-62
2021/05/09 09:34:37;;;;;;;1999.90;999.90;;;;;;;20.00;28.62;96468.09;5081156;28;20196;-62
2021/05/09 09:37:06;;;;;;;1999.90;999.90;;;;;;;19.91;26.72;96454.25;5081232;28;20192;-62
2021/05/09 09:39:47;;;;;;;1999.90;999.90;;;;;;;20.09;29.54;96456.31;5080579;28;20224;-63
2021/05/09 09:42:15;;;;;;;1999.90;999.90;;;;;;;20.01;28.52;96459.06;5080298;28;20301;-63
2021/05/09 09:44:43;;;;;;;1999.90;999.90;;;;;;;20.20;25.43;96462.72;5083178;28;20260;-61
2021/05/09 09:47:09;;;;;;;1999.90;999.90;;;;;;;20.35;27.10;96453.38;5085801;28;20231;-64
2021/05/09 09:49:38;;;;;;;1999.90;999.90;;;;;;;20.40;24.73;96455.78;5083242;28;20246;-63
2021/05/09 09:52:08;;;;;;;1999.90;999.90;;;;;;;20.43;26.47;96449.06;5084991;28;20636;-66
2021/05/09 09:54:37;;;;;;;1999.90;999.90;;;;;;;20.50;23.34;96444.78;5085504;28;20260;-62
2021/05/09 09:57:07;;;;;;;1999.90;999.90;;;;;;;20.69;22.99;96438.88;5084162;28;20219;-64
2021/05/09 09:59:35;;;;;;;1999.90;999.90;;;;;;;20.54;24.10;96444.88;5084692;28;20192;-61
2021/05/09 10:02:06;;;;;;;1999.90;999.90;;;;;;;20.37;23.77;96440.63;5085780;28;20208;-61
2021/05/09 10:04:34;;;;;;;1999.90;999.90;;;;;;;20.17;23.85;96444.13;5081015;28;20266;-62
2021/05/09 10:07:09;;;;;;;1999.90;999.90;;;;;;;20.60;25.82;96444.31;5080696;28;20232;-60
2021/05/09 10:09:36;;;;;;;1999.90;999.90;;;;;;;20.58;25.36;96443.84;5082216;28;20712;-63
2021/05/09 10:12:03;;;;;;;1999.90;999.90;;;;;;;20.66;25.20;96436.16;5080162;28;20283;-60
2021/05/09 10:14:30;;;;;;;1999.90;999.90;;;;;;;20.76;24.73;96430.41;5082814;28;20638;-63
2021/05/09 10:16:58;;;;;;;1999.90;999.90;;;;;;;20.69;21.67;96430.97;5083882;28;20223;-62
2021/05/09 10:19:26;;;;;;;1999.90;999.90;;;;;;;20.65;23.22;96432.75;5080610;28;20196;-62
2021/05/09 10:21:53;;;;;;;1999.90;999.90;;;;;;;20.78;23.78;96436.09;5083507;28;20220;-64
2021/05/09 10:24:22;;;;;;;1999.90;999.90;;;;;;;20.88;21.64;96435.63;5082391;28;20284;-63
2021/05/09 10:26:51;;;;;;;1999.90;999.90;;;;;;;21.01;23.30;96423.91;5081527;28;20197;-61
2021/05/09 10:29:47;;;;;;;1999.90;999.90;;;;;;;21.06;23.14;96428.97;5082495;28;20284;-60
2021/05/09 10:32:45;;;;;;;1999.90;999.90;;;;;;;20.95;23.10;96426.03;5080772;28;20234;-64
2021/05/09 10:35:12;;;;;;;1999.90;999.90;;;;;;;21.08;21.27;96432.03;5082831;28;20248;-63
2021/05/09 10:38:10;;;;;;;1999.90;999.90;;;;;;;21.11;22.87;96431.38;5081779;28;20656;-61
2021/05/09 10:40:43;;;;;;;1999.90;999.90;;;;;;;21.31;24.48;96422.50;5083206;28;20720;-62
2021/05/09 10:43:38;;;;;;;1999.90;999.90;;;;;;;21.39;22.21;96423.41;5084349;28;20245;-64
2021/05/09 10:46:06;;;;;;;1999.90;999.90;;;;;;;21.15;21.76;96413.75;5083181;28;20192;-63
2021/05/09 10:48:34;;;;;;;1999.90;999.90;;;;;;;20.94;21.29;96411.28;5084090;28;20226;-63
2021/05/09 10:51:28;;;;;;;1999.90;999.90;;;;;;;21.15;22.07;96405.81;5083023;28;20254;-63
2021/05/09 10:54:13;;;;;;;1999.90;999.90;;;;;;;21.27;22.72;96397.81;5082253;28;20189;-63
2021/05/09 10:56:40;;;;;;;1999.90;999.90;;;;;;;21.07;23.75;96401.41;5079518;28;20188;-62
2021/05/09 10:59:10;;;;;;;1999.90;999.90;;;;;;;21.13;25.90;96397.41;5073211;28;20203;-65
2021/05/09 11:01:37;;;;;;;1999.90;999.90;;;;;;;21.31;23.63;96393.41;5072736;28;20284;-65